Time;durP1;ratioP1;P1;durP2;ratioP2;P2;SDS_P1;SDS_P2;PMS_P1;PMS_P2;Temp;Humidity;BMP_temperature;BMP_pressure;BME280_temperature;BME280_humidity;BME280_pressure;Samples;Min_cycle;Max_cycle;Signal;HPM_P1;HPM_P2
2021/12/01 00:01:05;;;;;;;52.28;24.35;;;9.30;99.90;;;;;;5136239;27;20043;-92
2021/12/01 00:03:31;;;;;;;46.75;24.15;;;9.30;99.90;;;;;;5119342;27;20503;-92
2021/12/01 00:05:56;;;;;;;51.60;23.98;;;9.30;99.90;;;;;;5102152;27;20046;-92
2021/12/01 00:08:22;;;;;;;44.47;22.08;;;9.30;99.90;;;;;;5119001;27;20103;-93
2021/12/01 00:10:48;;;;;;;55.78;24.05;;;9.30;99.90;;;;;;5102045;27;20050;-93
2021/12/01 00:13:17;;;;;;;49.25;25.30;;;9.30;99.90;;;;;;5102007;27;20078;-92
2021/12/01 00:15:44;;;;;;;44.35;23.92;;;9.30;99.90;;;;;;5118918;27;20057;-94
2021/12/01 00:18:12;;;;;;;44.38;23.08;;;9.30;99.90;;;;;;5135954;27;20047;-93
2021/12/01 00:20:39;;;;;;;53.85;23.90;;;9.30;99.90;;;;;;5101731;27;20594;-93
2021/12/01 00:23:05;;;;;;;40.58;23.10;;;9.20;99.90;;;;;;5101536;27;20130;-93
2021/12/01 00:25:35;;;;;;;47.70;23.40;;;9.30;99.90;;;;;;5135929;27;20131;-92
2021/12/01 00:28:01;;;;;;;40.75;21.40;;;9.20;99.90;;;;;;5118414;27;20039;-90
2021/12/01 00:30:27;;;;;;;44.28;23.45;;;9.30;99.90;;;;;;5118634;27;20138;-94
2021/12/01 00:32:54;;;;;;;35.40;19.25;;;9.30;99.90;;;;;;5118193;27;20057;-89
2021/12/01 00:35:20;;;;;;;41.72;22.88;;;9.30;99.90;;;;;;5101088;27;20107;-91
2021/12/01 00:37:45;;;;;;;38.67;22.23;;;9.30;99.90;;;;;;5101249;27;20489;-92
2021/12/01 00:40:13;;;;;;;45.92;23.17;;;9.30;99.90;;;;;;5118534;27;20054;-89
2021/12/01 00:42:40;;;;;;;41.30;21.70;;;9.30;99.90;;;;;;5118333;27;20051;-90
2021/12/01 00:45:11;;;;;;;40.38;21.95;;;9.30;99.90;;;;;;5135343;27;20499;-88
2021/12/01 00:50:14;;;;;;;39.30;21.48;;;9.30;99.90;;;;;;5118122;27;19972;-92
2021/12/01 00:52:40;;;;;;;41.22;21.42;;;9.30;99.90;;;;;;5117810;27;20047;-92
2021/12/01 00:55:07;;;;;;;39.10;23.55;;;9.30;99.90;;;;;;5118226;27;20043;-93
2021/12/01 00:57:33;;;;;;;37.33;21.15;;;9.30;99.90;;;;;;5117885;27;20078;-90
2021/12/01 00:59:58;;;;;;;45.85;23.33;;;9.30;99.90;;;;;;5118115;27;20110;-93
2021/12/01 01:02:24;;;;;;;32.63;18.60;;;9.30;99.90;;;;;;5117815;27;20088;-92
2021/12/01 01:04:49;;;;;;;29.00;18.38;;;9.30;99.90;;;;;;5100435;27;20078;-91
2021/12/01 01:07:15;;;;;;;33.88;18.60;;;9.50;99.90;;;;;;5117570;27;20079;-89
2021/12/01 01:09:43;;;;;;;40.95;20.80;;;9.40;99.90;;;;;;5117296;27;20035;-89
2021/12/01 01:17:40;;;;;;;48.28;21.27;;;9.40;99.90;;;;;;5134718;27;20090;-91
2021/12/01 01:20:10;;;;;;;40.15;19.52;;;9.40;99.90;;;;;;5117484;27;20046;-92
2021/12/01 01:22:36;;;;;;;39.65;19.45;;;9.40;99.90;;;;;;5134287;27;20503;-91
2021/12/01 01:25:04;;;;;;;44.20;19.67;;;9.40;99.90;;;;;;5100266;27;20054;-90
2021/12/01 01:27:30;;;;;;;43.60;18.98;;;9.40;99.90;;;;;;5117688;27;20085;-90
2021/12/01 01:29:56;;;;;;;34.00;15.98;;;9.40;99.90;;;;;;5099891;27;20093;-94
2021/12/01 01:32:21;;;;;;;31.30;15.90;;;9.40;99.90;;;;;;5134148;27;20047;-93
2021/12/01 01:34:47;;;;;;;29.08;15.82;;;9.40;99.90;;;;;;5133953;27;20045;-89
2021/12/01 01:37:13;;;;;;;32.58;16.02;;;9.40;99.90;;;;;;5117234;27;20054;-93
2021/12/01 01:39:39;;;;;;;30.73;16.17;;;9.40;99.90;;;;;;5100135;27;20047;-91
2021/12/01 01:42:05;;;;;;;44.80;16.73;;;9.40;99.90;;;;;;5099818;27;20039;-93
2021/12/01 01:44:31;;;;;;;34.03;14.85;;;9.40;99.90;;;;;;5117096;27;20039;-92
2021/12/01 01:46:57;;;;;;;37.90;16.35;;;9.40;99.90;;;;;;5099175;27;20488;-92
2021/12/01 01:49:39;;;;;;;35.50;15.10;;;9.40;99.90;;;;;;5133735;27;20043;-92
2021/12/01 01:52:04;;;;;;;40.05;17.70;;;9.60;99.90;;;;;;5099392;27;20092;-92
2021/12/01 01:54:30;;;;;;;34.22;15.45;;;9.50;99.90;;;;;;5099420;27;20051;-91
2021/12/01 01:56:56;;;;;;;28.85;13.70;;;9.50;99.90;;;;;;5099453;27;20047;-88
2021/12/01 01:59:21;;;;;;;31.80;13.82;;;9.50;99.90;;;;;;5116593;27;20054;-87
2021/12/01 02:01:55;;;;;;;30.85;13.38;;;9.60;99.90;;;;;;5098893;27;20039;-92
2021/12/01 02:04:22;;;;;;;44.92;15.88;;;9.50;99.90;;;;;;5100150;27;20130;-92
2021/12/01 02:06:49;;;;;;;28.55;12.38;;;9.60;99.90;;;;;;5133498;27;20526;-88
2021/12/01 02:09:18;;;;;;;28.63;12.98;;;9.50;99.90;;;;;;5099346;27;20416;-91
2021/12/01 02:11:44;;;;;;;25.08;12.05;;;9.50;99.90;;;;;;5099999;27;20095;-93
2021/12/01 02:14:10;;;;;;;21.17;10.70;;;9.50;99.90;;;;;;5129579;27;20425;-88
2021/12/01 02:16:36;;;;;;;21.60;10.48;;;9.60;99.90;;;;;;5095876;28;20119;-90
2021/12/01 02:19:03;;;;;;;23.63;10.80;;;9.70;99.90;;;;;;5106651;28;20118;-89
2021/12/01 02:21:30;;;;;;;22.67;11.48;;;9.60;99.90;;;;;;5096076;28;20126;-90
2021/12/01 02:24:05;;;;;;;17.17;9.30;;;9.70;99.90;;;;;;5095938;28;20069;-89
2021/12/01 02:26:34;;;;;;;34.60;12.57;;;9.60;99.90;;;;;;5112861;28;20048;-91
2021/12/01 02:29:01;;;;;;;20.42;10.00;;;9.80;99.90;;;;;;5129679;27;20134;-91
2021/12/01 02:31:34;;;;;;;18.38;9.68;;;9.60;99.90;;;;;;5129508;27;20063;-89
2021/12/01 02:34:01;;;;;;;19.85;9.52;;;9.60;99.90;;;;;;5095834;28;20048;-92
2021/12/01 02:36:27;;;;;;;21.95;9.68;;;9.60;99.90;;;;;;5112593;28;20039;-91
2021/12/01 02:38:53;;;;;;;25.67;10.20;;;9.70;99.90;;;;;;5095573;28;20044;-93
2021/12/01 02:41:28;;;;;;;14.00;7.55;;;9.60;99.90;;;;;;5095598;28;20135;-90
2021/12/01 02:43:54;;;;;;;21.83;8.55;;;9.70;99.90;;;;;;5095824;28;20058;-93
2021/12/01 02:46:20;;;;;;;10.55;6.22;;;9.70;99.90;;;;;;5095941;28;20039;-92
2021/12/01 02:48:46;;;;;;;10.82;6.13;;;9.90;99.90;;;;;;5112528;28;20070;-88
2021/12/01 02:51:12;;;;;;;14.70;6.45;;;9.80;99.90;;;;;;5095443;28;20042;-90
2021/12/01 02:53:40;;;;;;;10.57;5.20;;;9.80;99.90;;;;;;5095573;28;20122;-90
2021/12/01 02:56:07;;;;;;;7.25;3.83;;;9.80;99.90;;;;;;5095213;28;20079;-89
2021/12/01 02:58:40;;;;;;;8.80;3.65;;;9.80;99.90;;;;;;5129458;27;20048;-90
2021/12/01 03:01:24;;;;;;;10.05;4.30;;;9.80;99.90;;;;;;5116193;28;20429;-90
2021/12/01 03:03:51;;;;;;;7.53;2.35;;;9.80;99.90;;;;;;5133912;27;20404;-94
2021/12/01 03:06:19;;;;;;;7.38;2.25;;;9.80;99.90;;;;;;5082636;28;20047;-90
2021/12/01 03:08:46;;;;;;;13.40;2.10;;;9.70;99.90;;;;;;5116311;28;20051;-89
2021/12/01 03:11:12;;;;;;;9.55;1.70;;;9.70;99.90;;;;;;5099555;28;20054;-90
2021/12/01 03:13:40;;;;;;;8.50;2.22;;;9.60;99.90;;;;;;5098952;28;20043;-91
2021/12/01 03:16:06;;;;;;;4.45;1.65;;;9.60;99.90;;;;;;5116102;28;20047;-90
2021/12/01 03:18:32;;;;;;;10.80;2.80;;;9.60;99.90;;;;;;5133397;27;20047;-92
2021/12/01 03:20:58;;;;;;;7.72;2.08;;;9.80;99.90;;;;;;5116446;28;20044;-91
2021/12/01 03:23:25;;;;;;;6.13;2.25;;;9.60;99.90;;;;;;5099121;28;20036;-90
2021/12/01 03:25:51;;;;;;;5.72;2.75;;;9.70;99.90;;;;;;5099379;28;20058;-93
2021/12/01 03:28:18;;;;;;;5.43;2.25;;;9.70;99.90;;;;;;5116263;28;20043;-92
2021/12/01 03:30:44;;;;;;;5.72;2.30;;;9.50;99.90;;;;;;5082244;28;20075;-92
2021/12/01 03:33:14;;;;;;;4.70;2.10;;;9.60;99.90;;;;;;5082620;28;20051;-92
2021/12/01 03:35:43;;;;;;;3.72;1.90;;;9.50;99.90;;;;;;5081993;28;20047;-88
2021/12/01 03:38:09;;;;;;;7.97;2.05;;;9.60;99.90;;;;;;5098818;28;20047;-92
2021/12/01 03:40:35;;;;;;;1.98;1.73;;;9.60;99.90;;;;;;5098566;28;20378;-90
2021/12/01 03:43:01;;;;;;;4.50;2.10;;;9.60;99.90;;;;;;5133026;27;20454;-92
2021/12/01 03:45:27;;;;;;;2.72;1.67;;;9.70;99.90;;;;;;5115615;28;20051;-89
2021/12/01 03:47:53;;;;;;;5.40;1.88;;;9.50;99.90;;;;;;5115546;28;20401;-89
2021/12/01 03:50:19;;;;;;;3.50;2.03;;;9.60;99.90;;;;;;5115425;28;20053;-89
2021/12/01 03:52:45;;;;;;;4.82;2.10;;;9.60;99.90;;;;;;5132661;27;20588;-91
2021/12/01 03:55:11;;;;;;;4.97;2.13;;;9.60;99.90;;;;;;5115363;28;20126;-90
2021/12/01 03:57:38;;;;;;;6.10;2.53;;;9.70;99.90;;;;;;5115654;28;20481;-91
2021/12/01 04:00:07;;;;;;;7.07;2.15;;;9.50;99.90;;;;;;5098276;28;20428;-89
2021/12/01 04:02:33;;;;;;;3.75;2.35;;;9.50;99.90;;;;;;5115030;28;20136;-88
2021/12/01 04:04:59;;;;;;;9.90;2.80;;;9.50;99.90;;;;;;5115004;28;20110;-94
2021/12/01 04:07:24;;;;;;;5.68;3.00;;;9.50;99.90;;;;;;5097697;28;20120;-91
2021/12/01 04:09:51;;;;;;;6.50;3.20;;;9.50;99.90;;;;;;5114903;28;20050;-91
2021/12/01 04:12:17;;;;;;;3.47;2.70;;;9.50;99.90;;;;;;5098198;28;20481;-90
2021/12/01 04:14:44;;;;;;;5.15;2.85;;;9.50;99.90;;;;;;5113630;28;20063;-90
2021/12/01 04:17:09;;;;;;;5.57;2.85;;;9.50;99.90;;;;;;5130917;28;20047;-89
2021/12/01 04:19:35;;;;;;;5.35;3.25;;;9.40;99.90;;;;;;5096891;28;20138;-90
2021/12/01 04:22:01;;;;;;;6.95;3.42;;;9.40;99.90;;;;;;5130656;28;20499;-93
2021/12/01 04:24:27;;;;;;;8.40;3.90;;;9.40;99.90;;;;;;5130725;28;20075;-89
2021/12/01 04:26:53;;;;;;;7.80;3.63;;;9.40;99.90;;;;;;5096232;28;20078;-90
2021/12/01 04:29:19;;;;;;;7.43;4.13;;;9.40;99.90;;;;;;5113695;28;20043;-89
2021/12/01 04:31:45;;;;;;;5.43;3.80;;;9.30;99.90;;;;;;5113443;28;20054;-91
2021/12/01 04:34:10;;;;;;;6.35;3.88;;;9.30;99.90;;;;;;5113117;28;20504;-90
2021/12/01 04:36:39;;;;;;;5.40;4.13;;;9.20;99.90;;;;;;5096360;28;20090;-90
2021/12/01 04:39:09;;;;;;;5.30;3.88;;;9.30;99.90;;;;;;5130476;28;20035;-91
2021/12/01 04:41:38;;;;;;;5.22;4.22;;;9.40;99.90;;;;;;5086906;28;20042;-90
2021/12/01 04:44:09;;;;;;;5.10;3.30;;;9.30;99.90;;;;;;5113698;28;20059;-88
2021/12/01 04:49:57;;;;;;;5.45;4.07;;;9.20;99.90;;;;;;5114976;28;19969;-93
2021/12/01 04:52:23;;;;;;;6.15;3.78;;;9.20;99.90;;;;;;5096281;28;20065;-89
2021/12/01 04:54:49;;;;;;;5.72;4.10;;;9.20;99.90;;;;;;5113645;28;20476;-91
2021/12/01 04:57:16;;;;;;;4.43;3.58;;;9.20;99.90;;;;;;5113380;28;20075;-89
2021/12/01 04:59:42;;;;;;;6.05;4.47;;;9.20;99.90;;;;;;5130253;28;20043;-89
2021/12/01 05:02:07;;;;;;;6.88;3.72;;;9.10;99.90;;;;;;5129897;28;20043;-91
2021/12/01 05:04:33;;;;;;;6.13;4.07;;;9.20;99.90;;;;;;5112751;28;20093;-90
2021/12/01 05:06:59;;;;;;;6.40;4.55;;;9.10;99.90;;;;;;5113064;28;20051;-90
2021/12/01 05:09:25;;;;;;;5.90;4.38;;;9.10;99.90;;;;;;5096378;28;20445;-89
2021/12/01 05:11:51;;;;;;;4.97;3.90;;;9.10;99.90;;;;;;5113575;28;20177;-88
2021/12/01 05:14:18;;;;;;;7.75;4.65;;;9.10;99.90;;;;;;5074904;28;1085187;-89
2021/12/01 05:17:05;;;;;;;5.97;4.10;;;9.20;99.90;;;;;;5130551;27;20130;-88
2021/12/01 05:19:30;;;;;;;7.78;4.85;;;9.00;99.90;;;;;;5079941;28;20051;-92
2021/12/01 05:21:56;;;;;;;14.77;5.35;;;9.00;99.90;;;;;;5113068;28;20501;-88
2021/12/01 05:24:22;;;;;;;7.07;4.78;;;9.00;99.90;;;;;;5114376;28;20036;-89
2021/12/01 05:26:48;;;;;;;8.88;5.40;;;9.00;99.90;;;;;;5113952;28;20051;-92
2021/12/01 05:29:16;;;;;;;6.82;4.93;;;9.00;99.90;;;;;;5097155;28;20118;-90
2021/12/01 05:31:41;;;;;;;5.10;4.00;;;9.00;99.90;;;;;;5096679;28;20044;-91
2021/12/01 05:34:07;;;;;;;6.47;4.93;;;8.90;99.90;;;;;;5113684;28;20039;-92
2021/12/01 05:36:33;;;;;;;9.82;4.90;;;8.90;99.90;;;;;;5096069;28;20142;-91
2021/12/01 05:38:59;;;;;;;4.65;3.20;;;8.90;99.90;;;;;;5113542;28;20047;-89
2021/12/01 05:41:25;;;;;;;6.20;4.30;;;8.80;99.90;;;;;;5130532;27;20035;-93
2021/12/01 05:43:51;;;;;;;4.32;2.92;;;8.80;99.90;;;;;;5130846;27;20054;-88
2021/12/01 05:46:17;;;;;;;4.53;3.13;;;8.80;99.90;;;;;;5096457;28;20043;-93
2021/12/01 05:48:43;;;;;;;4.65;3.30;;;8.80;99.90;;;;;;5130376;27;20089;-91
2021/12/01 05:51:09;;;;;;;3.92;2.80;;;8.80;99.90;;;;;;5095801;28;20052;-88
2021/12/01 05:53:35;;;;;;;3.42;2.92;;;8.70;99.90;;;;;;5096417;28;20039;-91
2021/12/01 05:56:01;;;;;;;5.07;3.15;;;8.70;99.90;;;;;;5113482;28;20040;-90
2021/12/01 05:58:27;;;;;;;3.22;2.40;;;8.70;99.90;;;;;;5130702;27;20066;-89
2021/12/01 06:00:53;;;;;;;3.60;2.60;;;8.70;99.90;;;;;;5112605;28;20036;-89
2021/12/01 06:03:19;;;;;;;3.25;2.50;;;8.70;99.90;;;;;;5112924;28;20047;-90
2021/12/01 06:05:46;;;;;;;3.72;2.55;;;8.60;99.90;;;;;;5112714;28;20546;-90
2021/12/01 06:08:12;;;;;;;2.88;2.58;;;8.60;99.90;;;;;;5095795;28;20104;-90
2021/12/01 06:10:40;;;;;;;4.15;2.92;;;8.60;99.90;;;;;;5105526;27;20043;-89
2021/12/01 06:13:06;;;;;;;4.68;3.28;;;8.60;99.90;;;;;;5098762;28;20411;-87
2021/12/01 06:15:32;;;;;;;3.40;2.60;;;8.60;99.90;;;;;;5115966;27;20057;-88
2021/12/01 06:17:58;;;;;;;4.70;3.25;;;8.50;99.90;;;;;;5098946;27;20086;-88
2021/12/01 06:20:25;;;;;;;2.10;1.90;;;8.50;99.90;;;;;;5115677;27;20135;-88
2021/12/01 06:22:52;;;;;;;3.83;3.00;;;8.50;99.90;;;;;;5115617;27;20047;-87
2021/12/01 06:25:18;;;;;;;4.40;2.63;;;8.50;99.90;;;;;;5116079;27;20074;-87
2021/12/01 06:27:44;;;;;;;4.30;2.83;;;8.50;99.90;;;;;;5115712;27;20059;-88
2021/12/01 06:30:10;;;;;;;3.92;2.90;;;8.50;99.90;;;;;;5098967;27;20053;-89
2021/12/01 06:32:36;;;;;;;3.30;2.90;;;8.50;99.90;;;;;;5099030;27;20369;-89
2021/12/01 06:35:02;;;;;;;3.33;2.80;;;8.40;99.90;;;;;;5115786;27;20049;-88
2021/12/01 06:37:28;;;;;;;4.43;2.47;;;8.40;99.90;;;;;;5099087;27;20392;-88
2021/12/01 06:39:54;;;;;;;3.08;2.40;;;8.40;99.90;;;;;;5115786;27;20100;-91
2021/12/01 06:42:19;;;;;;;4.53;2.38;;;8.60;99.90;;;;;;5098477;28;20086;-89
2021/12/01 06:44:45;;;;;;;2.50;2.22;;;8.40;99.90;;;;;;5132917;27;20039;-89
2021/12/01 06:47:11;;;;;;;2.95;2.45;;;8.40;99.90;;;;;;5115933;28;20465;-91
2021/12/01 06:49:37;;;;;;;2.90;2.20;;;8.40;99.90;;;;;;5098335;28;20047;-89
2021/12/01 06:52:03;;;;;;;4.80;2.80;;;8.50;99.90;;;;;;5115890;28;20051;-89
2021/12/01 06:54:28;;;;;;;4.97;2.65;;;8.40;99.90;;;;;;5115561;28;20047;-87
2021/12/01 06:56:54;;;;;;;2.92;2.30;;;8.40;99.90;;;;;;5132643;28;20130;-88
2021/12/01 06:59:20;;;;;;;3.30;2.40;;;8.60;99.90;;;;;;5098793;28;20078;-86
2021/12/01 07:01:46;;;;;;;3.80;2.80;;;8.40;99.90;;;;;;5115129;28;20042;-87
2021/12/01 07:04:13;;;;;;;6.35;2.95;;;8.60;99.90;;;;;;5115320;28;20396;-88
2021/12/01 07:06:39;;;;;;;3.47;2.50;;;8.40;99.90;;;;;;5098204;28;20066;-88
2021/12/01 07:09:05;;;;;;;2.17;1.98;;;8.40;99.90;;;;;;5098458;28;20043;-90
2021/12/01 07:11:31;;;;;;;4.15;2.60;;;8.40;99.90;;;;;;5098414;28;20043;-90
2021/12/01 07:13:57;;;;;;;4.25;2.72;;;8.50;99.90;;;;;;5114942;28;20130;-87
2021/12/01 07:16:23;;;;;;;4.38;2.70;;;8.40;99.90;;;;;;5098459;28;20043;-90
2021/12/01 07:18:49;;;;;;;4.65;3.10;;;8.40;99.90;;;;;;5115127;28;20092;-90
2021/12/01 07:21:14;;;;;;;3.13;2.67;;;8.50;99.90;;;;;;5115502;28;20046;-87
2021/12/01 07:23:40;;;;;;;6.45;3.00;;;8.40;99.90;;;;;;5116105;28;20102;-92
2021/12/01 07:26:06;;;;;;;3.53;2.92;;;8.40;99.90;;;;;;5115769;28;20039;-88
2021/12/01 07:28:32;;;;;;;5.22;3.13;;;8.40;99.90;;;;;;5115821;28;20043;-90
2021/12/01 07:30:59;;;;;;;3.70;3.13;;;8.60;99.90;;;;;;5098939;28;20075;-90
2021/12/01 07:33:24;;;;;;;5.13;3.45;;;8.40;99.90;;;;;;5116027;28;20086;-90
2021/12/01 07:35:51;;;;;;;4.78;2.95;;;8.60;99.90;;;;;;5098275;28;20093;-90
2021/12/01 07:38:17;;;;;;;4.60;2.67;;;8.30;99.90;;;;;;5115951;28;20043;-93
2021/12/01 07:40:43;;;;;;;6.18;2.95;;;8.40;99.90;;;;;;5115643;28;20050;-92
2021/12/01 07:43:09;;;;;;;5.10;3.30;;;8.60;99.90;;;;;;5098546;28;20405;-92
2021/12/01 07:45:35;;;;;;;4.47;3.40;;;8.50;99.90;;;;;;5117669;27;20035;-94
2021/12/01 07:48:01;;;;;;;6.38;3.40;;;8.30;99.90;;;;;;5136261;27;20072;-92
2021/12/01 07:50:27;;;;;;;4.63;2.72;;;8.30;99.90;;;;;;5101831;27;20051;-91
2021/12/01 07:52:53;;;;;;;4.90;2.92;;;8.40;99.90;;;;;;5119030;27;20043;-90
2021/12/01 07:55:18;;;;;;;5.75;3.20;;;8.50;99.90;;;;;;5119275;27;20057;-94
2021/12/01 07:57:46;;;;;;;5.18;2.55;;;8.40;99.90;;;;;;5136178;27;20043;-91
2021/12/01 08:00:13;;;;;;;3.47;2.88;;;8.60;99.90;;;;;;5101909;27;20127;-90
2021/12/01 08:02:39;;;;;;;4.03;3.00;;;8.40;99.90;;;;;;5118023;27;20061;-91
2021/12/01 08:05:07;;;;;;;3.22;2.90;;;8.40;99.90;;;;;;5118707;27;20031;-90
2021/12/01 08:07:38;;;;;;;4.03;3.05;;;8.40;99.90;;;;;;5118836;27;20043;-90
2021/12/01 08:10:05;;;;;;;4.60;3.40;;;8.60;99.90;;;;;;5118742;27;20058;-91
2021/12/01 08:12:33;;;;;;;4.20;3.78;;;8.50;99.90;;;;;;5101562;27;20159;-91
2021/12/01 08:15:05;;;;;;;4.80;3.38;;;8.50;99.90;;;;;;5118432;27;20055;-89
2021/12/01 08:17:32;;;;;;;5.18;3.40;;;8.50;99.90;;;;;;5101478;27;20079;-89
2021/12/01 08:19:58;;;;;;;3.85;3.22;;;8.60;99.90;;;;;;5118152;27;20089;-91
2021/12/01 08:22:27;;;;;;;6.43;4.25;;;8.50;99.90;;;;;;5101326;27;20096;-90
2021/12/01 08:24:54;;;;;;;8.10;4.25;;;8.60;99.90;;;;;;5101190;27;20107;-91
2021/12/01 08:27:21;;;;;;;5.97;4.20;;;8.50;99.90;;;;;;5118368;27;20082;-91
2021/12/01 08:29:47;;;;;;;5.00;4.13;;;8.70;99.90;;;;;;5118090;27;20043;-90
2021/12/01 08:32:13;;;;;;;4.93;3.85;;;8.70;99.90;;;;;;5118001;27;20582;-90
2021/12/01 08:34:39;;;;;;;4.97;4.03;;;8.60;99.90;;;;;;5134762;27;20042;-90
2021/12/01 08:37:08;;;;;;;7.35;4.25;;;8.60;99.90;;;;;;5118056;27;20484;-90
2021/12/01 08:39:35;;;;;;;8.93;5.20;;;8.70;99.90;;;;;;5084417;27;20058;-89
2021/12/01 08:42:01;;;;;;;7.93;4.68;;;8.60;99.90;;;;;;5117683;27;20078;-90
2021/12/01 08:44:26;;;;;;;6.82;4.57;;;8.70;99.90;;;;;;5117950;27;20104;-90
2021/12/01 08:46:52;;;;;;;10.40;5.10;;;8.60;99.90;;;;;;5100883;27;20519;-90
2021/12/01 08:49:18;;;;;;;9.90;5.70;;;8.60;99.90;;;;;;5101295;27;20088;-92
2021/12/01 08:51:43;;;;;;;9.63;4.00;;;8.60;99.90;;;;;;5117892;27;20507;-90
2021/12/01 08:54:13;;;;;;;8.40;5.03;;;8.70;99.90;;;;;;5102259;27;20378;-92
2021/12/01 08:56:40;;;;;;;6.18;3.83;;;8.70;99.90;;;;;;5100425;27;20514;-92
2021/12/01 08:59:06;;;;;;;8.38;4.15;;;8.90;99.90;;;;;;5084335;27;20499;-92
2021/12/01 09:01:32;;;;;;;9.30;3.95;;;8.50;99.90;;;;;;5118007;27;20130;-90
2021/12/01 09:03:58;;;;;;;9.57;3.10;;;8.50;99.90;;;;;;5101071;27;20054;-92
2021/12/01 09:06:23;;;;;;;11.63;3.50;;;8.60;99.90;;;;;;5100675;27;20050;-91
2021/12/01 09:08:49;;;;;;;8.18;1.92;;;8.90;99.90;;;;;;5118233;27;20051;-86
2021/12/01 09:11:15;;;;;;;16.95;2.45;;;8.70;99.90;;;;;;5100762;27;20571;-92
2021/12/01 09:13:41;;;;;;;12.85;2.35;;;8.80;99.90;;;;;;5100088;27;20089;-91
2021/12/01 09:16:07;;;;;;;10.50;1.80;;;8.70;99.90;;;;;;5100508;27;20138;-92
2021/12/01 09:18:33;;;;;;;11.60;2.50;;;8.70;99.90;;;;;;5100385;27;20138;-90
2021/12/01 09:21:01;;;;;;;12.82;1.85;;;8.50;99.90;;;;;;5100151;27;20113;-91
2021/12/01 09:23:27;;;;;;;9.95;1.60;;;8.30;99.90;;;;;;5117628;27;20485;-89
2021/12/01 09:25:53;;;;;;;13.52;2.22;;;8.30;99.90;;;;;;5117233;27;20051;-92
2021/12/01 09:28:23;;;;;;;12.60;1.67;;;8.50;99.90;;;;;;5100475;27;20507;-90
2021/12/01 09:30:50;;;;;;;12.20;1.50;;;8.70;99.90;;;;;;5100013;27;20051;-91
2021/12/01 09:33:16;;;;;;;11.38;2.05;;;8.90;99.90;;;;;;5099968;27;20084;-92
2021/12/01 09:35:43;;;;;;;13.70;1.70;;;8.80;99.90;;;;;;5117121;27;20035;-91
2021/12/01 09:38:13;;;;;;;8.35;1.35;;;8.70;99.90;;;;;;5117233;27;20175;-93
2021/12/01 09:40:42;;;;;;;11.25;2.10;;;8.70;99.90;;;;;;5116672;27;20472;-91
2021/12/01 09:43:08;;;;;;;11.23;1.92;;;8.70;99.90;;;;;;5117298;27;20039;-93
2021/12/01 09:45:34;;;;;;;11.30;1.75;;;8.50;99.90;;;;;;5100190;27;20441;-91
2021/12/01 09:48:00;;;;;;;8.35;1.58;;;8.40;99.90;;;;;;5117089;27;20424;-92
2021/12/01 09:50:25;;;;;;;11.45;1.80;;;8.50;99.90;;;;;;5099840;27;20096;-92
2021/12/01 09:52:52;;;;;;;14.27;1.70;;;8.50;99.90;;;;;;5117139;27;20130;-91
2021/12/01 09:55:18;;;;;;;12.27;2.35;;;8.60;99.90;;;;;;5099622;27;20496;-92
2021/12/01 09:58:05;;;;;;;6.88;0.98;;;8.40;99.90;;;;;;5100165;27;20043;-93
2021/12/01 10:00:33;;;;;;;13.57;1.90;;;8.30;99.90;;;;;;5116484;27;20507;-90
2021/12/01 10:02:59;;;;;;;11.50;1.50;;;8.30;99.90;;;;;;5099523;27;20154;-91
2021/12/01 10:05:48;;;;;;;10.15;1.50;;;8.30;99.90;;;;;;5099924;27;20047;-94
2021/12/01 10:08:26;;;;;;;11.07;1.38;;;8.30;99.90;;;;;;5098690;27;20203;-92
2021/12/01 10:10:54;;;;;;;8.38;1.13;;;8.30;99.90;;;;;;5099291;27;20050;-92
2021/12/01 10:13:51;;;;;;;13.82;1.40;;;8.30;99.90;;;;;;5096009;28;20059;-92
2021/12/01 10:16:19;;;;;;;16.35;1.63;;;8.40;99.90;;;;;;5111821;28;20146;-93
2021/12/01 10:18:54;;;;;;;8.70;1.40;;;8.40;99.90;;;;;;5113115;28;20052;-91
2021/12/01 10:21:34;;;;;;;17.15;2.45;;;8.60;99.90;;;;;;5096115;28;20069;-93
2021/12/01 10:24:08;;;;;;;12.07;1.48;;;8.50;99.90;;;;;;5096142;28;20043;-93
2021/12/01 10:26:43;;;;;;;13.52;1.42;;;8.50;99.90;;;;;;5113094;28;20188;-90
2021/12/01 10:29:16;;;;;;;11.43;1.45;;;8.50;99.90;;;;;;5112916;28;20124;-90
2021/12/01 10:31:46;;;;;;;8.60;1.10;;;8.50;99.90;;;;;;5113645;28;20059;-89
2021/12/01 10:34:19;;;;;;;9.20;1.48;;;8.60;99.90;;;;;;5096862;28;20050;-92
2021/12/01 10:36:48;;;;;;;5.90;1.33;;;8.70;99.90;;;;;;5114402;28;20493;-88
2021/12/01 10:39:13;;;;;;;13.65;1.90;;;9.00;99.90;;;;;;5095984;28;20040;-93
2021/12/01 10:41:42;;;;;;;12.60;1.52;;;9.30;99.90;;;;;;5113248;28;20143;-91
2021/12/01 10:44:14;;;;;;;14.05;2.00;;;9.50;99.90;;;;;;5095760;28;20043;-91
2021/12/01 10:46:49;;;;;;;12.15;1.50;;;9.40;99.90;;;;;;5095098;28;20048;-91
2021/12/01 10:49:16;;;;;;;15.57;1.67;;;9.10;99.90;;;;;;5112926;28;20044;-92
2021/12/01 10:51:43;;;;;;;14.00;1.77;;;9.10;99.90;;;;;;5096108;28;20083;-91
2021/12/01 10:54:20;;;;;;;9.45;1.25;;;9.30;99.90;;;;;;5112876;28;20040;-91
2021/12/01 10:57:16;;;;;;;10.10;1.88;;;9.30;99.90;;;;;;5112347;28;20097;-91
2021/12/01 10:59:46;;;;;;;35.65;2.00;;;9.20;99.90;;;;;;5014191;28;20061;-93
2021/12/01 11:02:12;;;;;;;13.38;1.50;;;9.30;99.90;;;;;;4997899;28;20050;-92
2021/12/01 11:04:43;;;;;;;15.60;1.67;;;9.20;99.90;;;;;;5014191;28;20052;-92
2021/12/01 11:07:30;;;;;;;7.37;1.30;;;9.10;99.90;;;;;;5014432;28;20570;-94
2021/12/01 11:10:18;;;;;;;13.05;1.92;;;9.10;99.90;;;;;;4998422;28;20292;-93
2021/12/01 11:13:01;;;;;;;9.57;1.67;;;9.10;99.90;;;;;;4993983;28;20133;-92
2021/12/01 11:15:31;;;;;;;13.85;1.70;;;9.10;99.90;;;;;;4995198;28;20057;-92
2021/12/01 11:17:58;;;;;;;8.57;1.27;;;9.10;99.90;;;;;;4995039;28;20054;-91
2021/12/01 11:20:38;;;;;;;15.13;1.75;;;9.10;99.90;;;;;;4980136;28;20411;-92
2021/12/01 11:23:22;;;;;;;10.90;1.50;;;9.30;99.90;;;;;;5015323;28;20054;-90
2021/12/01 11:26:06;;;;;;;16.58;2.10;;;9.30;99.90;;;;;;4998993;28;20107;-92
2021/12/01 11:28:36;;;;;;;21.73;2.40;;;9.30;99.90;;;;;;4998895;28;20089;-93
2021/12/01 11:31:06;;;;;;;14.98;2.50;;;9.20;99.90;;;;;;4998463;28;20065;-91
2021/12/01 11:33:32;;;;;;;19.98;2.45;;;9.10;99.90;;;;;;4998461;28;20053;-94
2021/12/01 11:36:09;;;;;;;17.15;2.17;;;9.30;99.90;;;;;;5005613;28;20060;-93
2021/12/01 11:38:35;;;;;;;16.00;2.05;;;9.30;99.90;;;;;;5082180;28;20200;-93
2021/12/01 11:41:03;;;;;;;12.48;2.30;;;9.20;99.90;;;;;;5099286;28;20046;-91
2021/12/01 11:43:31;;;;;;;19.25;2.05;;;9.00;99.90;;;;;;5081924;28;20050;-90
2021/12/01 11:45:57;;;;;;;19.52;2.47;;;9.00;99.90;;;;;;5116168;28;20043;-92
2021/12/01 11:48:29;;;;;;;17.35;2.42;;;9.00;99.90;;;;;;5099211;28;20089;-92
2021/12/01 11:51:02;;;;;;;18.10;2.58;;;8.90;99.90;;;;;;5115870;28;20489;-93
2021/12/01 11:53:34;;;;;;;15.25;2.08;;;9.00;99.90;;;;;;5116065;28;20047;-92
2021/12/01 11:56:14;;;;;;;15.70;2.38;;;8.90;99.90;;;;;;5081624;28;20047;-89
2021/12/01 11:59:14;;;;;;;10.48;1.60;;;8.90;99.90;;;;;;5081786;28;20136;-92
2021/12/01 12:02:01;;;;;;;19.00;2.80;;;8.90;99.90;;;;;;4997922;28;20065;-90
2021/12/01 12:04:52;;;;;;;15.30;2.35;;;9.20;99.90;;;;;;4997754;28;20042;-92
2021/12/01 12:07:27;;;;;;;17.15;2.63;;;9.00;99.90;;;;;;4981544;28;20094;-92
2021/12/01 12:10:19;;;;;;;19.80;2.60;;;9.00;99.90;;;;;;4981955;28;20496;-93
2021/12/01 12:13:04;;;;;;;22.30;2.92;;;8.80;99.90;;;;;;5001028;28;20053;-90
2021/12/01 12:15:46;;;;;;;17.50;2.38;;;8.60;99.90;;;;;;5001383;28;20064;-92
2021/12/01 12:18:34;;;;;;;14.57;2.30;;;8.70;99.90;;;;;;5017451;28;20041;-90
2021/12/01 12:24:17;;;;;;;20.45;2.28;;;8.70;99.90;;;;;;5017140;28;20053;-89
2021/12/01 12:26:51;;;;;;;17.58;2.72;;;8.70;99.90;;;;;;5017143;28;20435;-91
2021/12/01 12:29:24;;;;;;;19.92;2.83;;;8.40;99.90;;;;;;5017821;28;20052;-90
2021/12/01 12:31:52;;;;;;;16.77;2.30;;;8.20;99.90;;;;;;5001961;28;20103;-93
2021/12/01 12:34:20;;;;;;;17.00;2.15;;;8.20;99.90;;;;;;5002119;28;20049;-92
2021/12/01 12:37:19;;;;;;;18.92;2.55;;;8.20;99.90;;;;;;5017610;28;20077;-92
2021/12/01 12:39:46;;;;;;;19.63;2.55;;;8.30;99.90;;;;;;5077226;28;20106;-94
2021/12/01 12:42:15;;;;;;;18.58;2.85;;;8.20;99.90;;;;;;5081201;28;20480;-92
2021/12/01 12:44:44;;;;;;;22.83;2.67;;;8.40;99.90;;;;;;5098107;28;20595;-94
2021/12/01 12:47:16;;;;;;;18.95;3.33;;;8.50;99.90;;;;;;5081600;28;20043;-93
2021/12/01 12:49:43;;;;;;;17.33;2.42;;;8.50;99.90;;;;;;5081593;28;20054;-93
2021/12/01 12:52:52;;;;;;;17.35;2.08;;;8.40;99.90;;;;;;5081030;28;20051;-90
2021/12/01 12:55:23;;;;;;;29.50;3.35;;;8.20;99.90;;;;;;5016910;28;20491;-94
2021/12/01 12:58:10;;;;;;;25.90;3.13;;;8.20;99.90;;;;;;5016813;28;20503;-92
2021/12/01 13:00:49;;;;;;;16.75;2.47;;;8.20;99.90;;;;;;5017105;28;20057;-93
2021/12/01 13:03:19;;;;;;;22.23;2.50;;;8.30;99.90;;;;;;5016984;28;20053;-93
2021/12/01 13:05:45;;;;;;;17.80;2.35;;;8.30;99.90;;;;;;5016871;28;20064;-92
2021/12/01 13:08:32;;;;;;;17.65;2.30;;;8.40;99.90;;;;;;5016815;28;20053;-91
2021/12/01 13:10:59;;;;;;;17.73;2.90;;;8.10;99.90;;;;;;5016400;28;20189;-92
2021/12/01 13:13:34;;;;;;;17.05;2.08;;;8.20;99.90;;;;;;5026468;28;20053;-94